Time;durP1;ratioP1;P1;durP2;ratioP2;P2;SDS_P1;SDS_P2;PMS_P1;PMS_P2;Temp;Humidity;BMP_temperature;BMP_pressure;BME280_temperature;BME280_humidity;BME280_pressure;Samples;Min_cycle;Max_cycle;Signal;HPM_P1;HPM_P2
2023/11/07 00:01:24;;;;;;;18.07;11.67;;;;;;;;;;781734;178;920390;-61
2023/11/07 00:03:50;;;;;;;13.40;9.40;;;;;;;;;;779581;179;920803;-61
2023/11/07 00:06:16;;;;;;;17.60;9.80;;;;;;;;;;772537;179;916862;-64
2023/11/07 00:08:42;;;;;;;16.03;8.80;;;;;;;;;;775699;176;919444;-61
2023/11/07 00:11:08;;;;;;;15.83;9.50;;;;;;;;;;768960;179;924026;-61
2023/11/07 00:13:33;;;;;;;18.12;8.88;;;;;;;;;;778245;178;915046;-65
2023/11/07 00:15:59;;;;;;;13.00;7.93;;;;;;;;;;772057;178;919017;-61
2023/11/07 00:18:25;;;;;;;12.20;8.37;;;;;;;;;;773591;179;920099;-61
2023/11/07 00:20:51;;;;;;;17.67;9.17;;;;;;;;;;780502;179;918869;-61
2023/11/07 00:23:17;;;;;;;15.95;9.32;;;;;;;;;;772091;179;921183;-65
2023/11/07 00:25:43;;;;;;;10.83;7.87;;;;;;;;;;778598;179;931472;-61
2023/11/07 00:28:10;;;;;;;12.73;7.47;;;;;;;;;;781648;177;919242;-61
2023/11/07 00:30:34;;;;;;;11.40;8.00;;;;;;;;;;777016;179;918270;-65
2023/11/07 00:33:00;;;;;;;10.57;7.97;;;;;;;;;;776103;175;912013;-60
2023/11/07 00:35:26;;;;;;;10.47;7.07;;;;;;;;;;783364;179;816706;-60
2023/11/07 00:37:52;;;;;;;11.13;7.73;;;;;;;;;;766001;179;917444;-61
2023/11/07 00:40:18;;;;;;;16.57;8.90;;;;;;;;;;775432;178;915398;-60
2023/11/07 00:42:45;;;;;;;13.80;7.80;;;;;;;;;;782370;178;917913;-61
2023/11/07 00:45:10;;;;;;;13.40;8.50;;;;;;;;;;782836;178;819204;-65
2023/11/07 00:47:35;;;;;;;12.33;8.90;;;;;;;;;;772263;178;942979;-66
2023/11/07 00:50:01;;;;;;;9.73;6.90;;;;;;;;;;780814;178;918501;-64
2023/11/07 00:52:28;;;;;;;11.10;7.57;;;;;;;;;;783779;177;934119;-67
2023/11/07 00:54:53;;;;;;;13.17;7.87;;;;;;;;;;776336;178;918989;-60
2023/11/07 00:57:19;;;;;;;8.18;6.12;;;;;;;;;;776904;178;912342;-61
2023/11/07 00:59:45;;;;;;;13.27;7.47;;;;;;;;;;780135;179;871004;-67
2023/11/07 01:02:11;;;;;;;15.87;8.43;;;;;;;;;;778081;177;914205;-65
2023/11/07 01:04:36;;;;;;;9.33;6.90;;;;;;;;;;775605;179;817325;-60
2023/11/07 01:07:03;;;;;;;9.30;6.33;;;;;;;;;;781042;176;921863;-61
2023/11/07 01:09:29;;;;;;;12.93;6.80;;;;;;;;;;774596;180;919425;-67
2023/11/07 01:11:55;;;;;;;8.05;5.90;;;;;;;;;;779044;178;914062;-65
2023/11/07 01:14:20;;;;;;;17.43;7.00;;;;;;;;;;773455;179;919727;-65
2023/11/07 01:16:46;;;;;;;9.90;6.17;;;;;;;;;;778867;179;921433;-60
2023/11/07 01:19:12;;;;;;;8.57;6.10;;;;;;;;;;775823;179;922653;-61
2023/11/07 01:21:38;;;;;;;11.43;6.30;;;;;;;;;;779441;178;923282;-61
2023/11/07 01:24:05;;;;;;;9.63;6.30;;;;;;;;;;778935;179;919325;-61
2023/11/07 01:26:31;;;;;;;10.73;6.97;;;;;;;;;;771525;179;918836;-61
2023/11/07 01:28:57;;;;;;;10.93;7.37;;;;;;;;;;773221;176;916816;-67
2023/11/07 01:31:22;;;;;;;11.00;6.50;;;;;;;;;;779590;179;916684;-61
2023/11/07 01:33:48;;;;;;;11.95;6.87;;;;;;;;;;776761;179;818314;-61
2023/11/07 01:36:14;;;;;;;12.17;6.80;;;;;;;;;;775734;179;920516;-66
2023/11/07 01:38:40;;;;;;;15.88;7.03;;;;;;;;;;774634;179;919119;-61
2023/11/07 01:41:06;;;;;;;13.63;6.60;;;;;;;;;;780714;179;918238;-61
2023/11/07 01:43:31;;;;;;;12.27;6.27;;;;;;;;;;777325;179;916727;-61
2023/11/07 01:45:59;;;;;;;11.30;6.53;;;;;;;;;;777479;179;919054;-66
2023/11/07 01:48:24;;;;;;;11.70;7.27;;;;;;;;;;774143;179;919803;-67
2023/11/07 01:50:49;;;;;;;9.83;6.30;;;;;;;;;;772354;179;916544;-61
2023/11/07 01:53:15;;;;;;;9.60;6.80;;;;;;;;;;775889;176;915950;-61
2023/11/07 01:55:41;;;;;;;9.40;6.33;;;;;;;;;;779580;178;915275;-62
2023/11/07 01:58:07;;;;;;;12.17;6.67;;;;;;;;;;781651;177;921551;-62
2023/11/07 02:00:32;;;;;;;9.68;5.68;;;;;;;;;;773503;178;922191;-65
2023/11/07 02:02:58;;;;;;;9.53;6.77;;;;;;;;;;777681;175;915368;-66
2023/11/07 02:05:25;;;;;;;10.23;6.50;;;;;;;;;;770056;180;810151;-66
2023/11/07 02:07:50;;;;;;;10.97;5.80;;;;;;;;;;774895;175;909587;-66
2023/11/07 02:10:16;;;;;;;9.47;5.90;;;;;;;;;;773739;178;915594;-61
2023/11/07 02:12:42;;;;;;;8.20;5.60;;;;;;;;;;776066;179;910224;-61
2023/11/07 02:15:13;;;;;;;9.07;5.57;;;;;;;;;;776026;179;919218;-61
2023/11/07 02:17:39;;;;;;;10.37;5.80;;;;;;;;;;775769;179;816459;-62
2023/11/07 02:20:06;;;;;;;8.73;6.20;;;;;;;;;;779194;178;817777;-61
2023/11/07 02:22:31;;;;;;;8.70;6.43;;;;;;;;;;774383;179;816239;-62
2023/11/07 02:24:57;;;;;;;8.70;6.83;;;;;;;;;;779700;178;915709;-61
2023/11/07 02:27:23;;;;;;;9.47;6.50;;;;;;;;;;775491;179;913475;-66
2023/11/07 02:29:49;;;;;;;9.43;6.47;;;;;;;;;;782700;179;912603;-67
2023/11/07 02:32:15;;;;;;;13.20;5.53;;;;;;;;;;771808;177;922541;-66
2023/11/07 02:34:41;;;;;;;9.53;6.20;;;;;;;;;;775719;178;915430;-66
2023/11/07 02:37:06;;;;;;;10.47;6.80;;;;;;;;;;780540;180;925025;-62
2023/11/07 02:39:33;;;;;;;9.90;6.40;;;;;;;;;;775411;180;920927;-61
2023/11/07 02:41:58;;;;;;;15.77;6.70;;;;;;;;;;777076;179;932211;-61
2023/11/07 02:44:24;;;;;;;7.53;6.40;;;;;;;;;;773849;179;813989;-61
2023/11/07 02:46:51;;;;;;;10.47;6.33;;;;;;;;;;775161;180;915736;-66
2023/11/07 02:49:16;;;;;;;11.67;6.50;;;;;;;;;;776763;179;820678;-66
2023/11/07 02:51:42;;;;;;;10.10;6.10;;;;;;;;;;776661;179;914183;-62
2023/11/07 02:54:07;;;;;;;10.40;6.13;;;;;;;;;;772859;180;916348;-66
2023/11/07 02:56:34;;;;;;;7.70;5.97;;;;;;;;;;782460;178;921792;-67
2023/11/07 02:58:59;;;;;;;11.30;6.82;;;;;;;;;;772986;179;916758;-61
2023/11/07 03:01:26;;;;;;;12.80;7.00;;;;;;;;;;779987;179;919124;-67
2023/11/07 03:03:51;;;;;;;9.43;5.27;;;;;;;;;;775383;179;915733;-67
2023/11/07 03:06:17;;;;;;;12.13;6.43;;;;;;;;;;778295;176;917955;-67
2023/11/07 03:08:42;;;;;;;12.53;6.47;;;;;;;;;;783023;176;919578;-61
2023/11/07 03:11:08;;;;;;;11.63;7.90;;;;;;;;;;773314;178;923837;-61
2023/11/07 03:13:34;;;;;;;12.88;7.68;;;;;;;;;;776004;177;919712;-61
2023/11/07 03:16:01;;;;;;;8.70;6.00;;;;;;;;;;781368;178;922034;-66
2023/11/07 03:18:27;;;;;;;9.70;6.50;;;;;;;;;;771375;179;817319;-66
2023/11/07 03:20:52;;;;;;;11.93;7.37;;;;;;;;;;774981;178;919193;-61
2023/11/07 03:23:18;;;;;;;13.00;6.27;;;;;;;;;;776806;178;919029;-66
2023/11/07 03:25:44;;;;;;;14.20;7.50;;;;;;;;;;777890;179;915429;-61
2023/11/07 03:28:10;;;;;;;8.40;5.67;;;;;;;;;;776799;177;919874;-62
2023/11/07 03:30:36;;;;;;;11.40;6.23;;;;;;;;;;776079;179;920228;-60
2023/11/07 03:33:02;;;;;;;10.67;6.57;;;;;;;;;;777087;179;917158;-61
2023/11/07 03:35:29;;;;;;;9.17;6.53;;;;;;;;;;774290;179;943950;-61
2023/11/07 03:37:53;;;;;;;11.33;7.20;;;;;;;;;;770611;179;921384;-66
2023/11/07 03:40:20;;;;;;;12.07;6.28;;;;;;;;;;775786;179;818731;-67
2023/11/07 03:42:45;;;;;;;7.73;5.90;;;;;;;;;;776441;179;931734;-61
2023/11/07 03:45:11;;;;;;;9.40;5.80;;;;;;;;;;775033;179;919702;-61
2023/11/07 03:47:37;;;;;;;10.50;6.40;;;;;;;;;;778189;175;916536;-61
2023/11/07 03:50:03;;;;;;;10.27;6.10;;;;;;;;;;777285;179;891928;-67
2023/11/07 03:52:29;;;;;;;8.40;7.10;;;;;;;;;;774520;175;916767;-61
2023/11/07 03:54:54;;;;;;;12.30;7.30;;;;;;;;;;776889;179;918516;-60
2023/11/07 03:57:20;;;;;;;12.70;8.13;;;;;;;;;;783218;179;918386;-60
2023/11/07 03:59:46;;;;;;;14.93;8.73;;;;;;;;;;774622;179;918554;-61
2023/11/07 04:02:12;;;;;;;12.13;8.63;;;;;;;;;;776655;179;942703;-66
2023/11/07 04:04:38;;;;;;;15.50;9.98;;;;;;;;;;781533;179;817285;-67
2023/11/07 04:07:04;;;;;;;16.23;9.77;;;;;;;;;;776829;179;861022;-60
2023/11/07 04:09:30;;;;;;;16.83;9.63;;;;;;;;;;774082;179;919345;-65
2023/11/07 04:11:56;;;;;;;16.23;10.48;;;;;;;;;;784699;179;816716;-60
2023/11/07 04:14:21;;;;;;;22.97;10.63;;;;;;;;;;776270;178;915840;-65
2023/11/07 04:16:48;;;;;;;12.60;9.60;;;;;;;;;;778920;178;918736;-65
2023/11/07 04:19:13;;;;;;;21.87;9.83;;;;;;;;;;779566;178;918732;-60
2023/11/07 04:21:39;;;;;;;14.13;9.70;;;;;;;;;;781957;179;919386;-60
2023/11/07 04:24:05;;;;;;;14.93;10.30;;;;;;;;;;775569;178;894859;-61
2023/11/07 04:26:31;;;;;;;22.77;10.10;;;;;;;;;;781025;178;918396;-60
2023/11/07 04:28:57;;;;;;;17.07;9.53;;;;;;;;;;779951;175;917543;-66
2023/11/07 04:31:23;;;;;;;15.53;10.57;;;;;;;;;;778521;178;916352;-66
2023/11/07 04:33:48;;;;;;;16.70;11.10;;;;;;;;;;778345;178;919410;-66
2023/11/07 04:36:16;;;;;;;18.40;9.40;;;;;;;;;;778966;179;919181;-60
2023/11/07 04:38:41;;;;;;;15.40;10.10;;;;;;;;;;775557;179;920521;-60
2023/11/07 04:41:06;;;;;;;16.55;9.88;;;;;;;;;;779280;179;920446;-66
2023/11/07 04:43:35;;;;;;;16.10;9.73;;;;;;;;;;775115;176;1015785;-66
2023/11/07 04:45:59;;;;;;;14.77;7.93;;;;;;;;;;769571;181;817115;-66
2023/11/07 04:48:24;;;;;;;15.60;8.80;;;;;;;;;;774449;176;919439;-60
2023/11/07 04:50:49;;;;;;;16.90;8.33;;;;;;;;;;777905;179;916848;-61
2023/11/07 04:53:15;;;;;;;11.77;7.97;;;;;;;;;;777864;179;912398;-60
2023/11/07 04:55:41;;;;;;;20.37;7.90;;;;;;;;;;774199;179;919124;-60
2023/11/07 04:58:07;;;;;;;14.85;7.40;;;;;;;;;;775096;179;918782;-60
2023/11/07 05:00:33;;;;;;;14.20;8.20;;;;;;;;;;782894;179;915569;-66
2023/11/07 05:02:59;;;;;;;11.25;7.35;;;;;;;;;;771662;179;915558;-61
2023/11/07 05:05:25;;;;;;;12.00;7.10;;;;;;;;;;771165;179;920228;-61
2023/11/07 05:07:51;;;;;;;8.60;6.62;;;;;;;;;;782049;178;914831;-61
2023/11/07 05:10:17;;;;;;;11.17;7.10;;;;;;;;;;770601;180;915963;-61
2023/11/07 05:12:43;;;;;;;12.53;7.17;;;;;;;;;;775120;178;918881;-61
2023/11/07 05:15:09;;;;;;;10.90;6.17;;;;;;;;;;777705;179;919457;-61
2023/11/07 05:17:35;;;;;;;15.90;6.73;;;;;;;;;;777447;175;893059;-66
2023/11/07 05:20:01;;;;;;;10.43;6.40;;;;;;;;;;777429;179;904214;-66
2023/11/07 05:22:26;;;;;;;8.53;7.00;;;;;;;;;;774804;179;916448;-61
2023/11/07 05:24:52;;;;;;;12.20;7.17;;;;;;;;;;779010;179;919034;-67
2023/11/07 05:27:18;;;;;;;9.47;5.53;;;;;;;;;;774424;177;915550;-66
2023/11/07 05:29:45;;;;;;;10.87;6.13;;;;;;;;;;778908;178;922698;-69
2023/11/07 05:32:11;;;;;;;9.57;6.40;;;;;;;;;;781663;178;903404;-61
2023/11/07 05:34:39;;;;;;;10.10;5.97;;;;;;;;;;769361;178;844346;-66
2023/11/07 05:37:02;;;;;;;8.97;6.03;;;;;;;;;;776068;178;913487;-61
2023/11/07 05:39:27;;;;;;;11.37;6.80;;;;;;;;;;777785;178;847425;-67
2023/11/07 05:41:54;;;;;;;8.53;6.63;;;;;;;;;;785917;178;616146;-66
2023/11/07 05:44:19;;;;;;;9.17;5.80;;;;;;;;;;783402;178;631402;-66
2023/11/07 05:46:45;;;;;;;10.23;7.37;;;;;;;;;;775044;179;635096;-66
2023/11/07 05:49:11;;;;;;;11.70;7.17;;;;;;;;;;784347;177;638099;-61
2023/11/07 05:51:38;;;;;;;9.50;6.90;;;;;;;;;;782275;179;643588;-62
2023/11/07 05:54:03;;;;;;;10.10;6.67;;;;;;;;;;777397;179;646795;-61
2023/11/07 05:56:28;;;;;;;19.57;6.67;;;;;;;;;;782358;179;616080;-61
2023/11/07 05:58:54;;;;;;;10.33;6.63;;;;;;;;;;775019;176;621011;-61
2023/11/07 06:01:20;;;;;;;11.50;6.07;;;;;;;;;;779558;179;623739;-66
2023/11/07 06:03:46;;;;;;;9.93;5.80;;;;;;;;;;781861;177;644638;-61
2023/11/07 06:06:12;;;;;;;9.27;6.60;;;;;;;;;;774579;181;618936;-61
2023/11/07 06:08:38;;;;;;;10.87;6.07;;;;;;;;;;780251;176;637313;-66
2023/11/07 06:11:04;;;;;;;9.90;6.47;;;;;;;;;;779989;179;792380;-61
2023/11/07 06:13:30;;;;;;;10.67;5.47;;;;;;;;;;781051;179;842741;-61
2023/11/07 06:15:56;;;;;;;13.60;6.53;;;;;;;;;;779023;179;873795;-61
2023/11/07 06:18:22;;;;;;;9.73;4.80;;;;;;;;;;775590;179;819531;-61
2023/11/07 06:20:47;;;;;;;13.77;7.13;;;;;;;;;;785314;179;780913;-61
2023/11/07 06:23:13;;;;;;;11.60;7.47;;;;;;;;;;777644;179;914178;-65
2023/11/07 06:25:39;;;;;;;9.07;6.80;;;;;;;;;;775810;179;920872;-66
2023/11/07 06:28:05;;;;;;;9.57;6.33;;;;;;;;;;785452;178;817254;-66
2023/11/07 06:30:30;;;;;;;10.63;6.70;;;;;;;;;;777761;179;919533;-67
2023/11/07 06:32:56;;;;;;;10.73;6.77;;;;;;;;;;779579;176;886570;-66
2023/11/07 06:35:22;;;;;;;12.93;6.43;;;;;;;;;;779228;179;925655;-66
2023/11/07 06:37:48;;;;;;;12.87;6.77;;;;;;;;;;773142;179;940420;-66
2023/11/07 06:40:14;;;;;;;11.63;7.10;;;;;;;;;;780540;178;919021;-63
2023/11/07 06:42:41;;;;;;;12.73;6.80;;;;;;;;;;772949;178;919521;-61
2023/11/07 06:45:07;;;;;;;9.50;6.40;;;;;;;;;;780891;178;916601;-67
2023/11/07 06:47:32;;;;;;;18.30;7.20;;;;;;;;;;780582;177;852538;-66
2023/11/07 06:50:01;;;;;;;20.40;9.47;;;;;;;;;;777522;178;916518;-61
2023/11/07 06:52:24;;;;;;;17.12;9.38;;;;;;;;;;782911;177;820862;-67
2023/11/07 06:54:50;;;;;;;19.73;11.50;;;;;;;;;;776642;178;916612;-67
2023/11/07 06:57:16;;;;;;;18.43;10.53;;;;;;;;;;778191;178;917752;-62
2023/11/07 06:59:42;;;;;;;14.53;9.40;;;;;;;;;;776309;179;919348;-62
2023/11/07 07:02:08;;;;;;;15.17;9.97;;;;;;;;;;773869;179;816963;-68
2023/11/07 07:04:34;;;;;;;15.83;8.33;;;;;;;;;;775848;179;920151;-63
2023/11/07 07:06:59;;;;;;;15.10;7.83;;;;;;;;;;772755;179;918768;-63
2023/11/07 07:09:26;;;;;;;14.70;8.70;;;;;;;;;;773793;179;918349;-64
2023/11/07 07:11:52;;;;;;;14.70;8.50;;;;;;;;;;775479;179;918537;-64
2023/11/07 07:14:17;;;;;;;20.63;10.07;;;;;;;;;;776632;179;920396;-65
2023/11/07 07:16:43;;;;;;;17.60;8.40;;;;;;;;;;782185;179;917798;-65
2023/11/07 07:19:09;;;;;;;13.13;7.30;;;;;;;;;;777856;179;918487;-67
2023/11/07 07:21:34;;;;;;;13.80;8.10;;;;;;;;;;779120;178;919884;-65
2023/11/07 07:24:12;;;;;;;10.75;7.15;;;;;;;;;;773307;179;918680;-67
2023/11/07 07:26:27;;;;;;;13.03;7.70;;;;;;;;;;781763;179;851920;-66
2023/11/07 07:28:53;;;;;;;13.13;8.30;;;;;;;;;;773668;179;919344;-67
2023/11/07 07:31:27;;;;;;;13.17;7.73;;;;;;;;;;774262;179;918827;-66
2023/11/07 07:33:45;;;;;;;14.47;7.90;;;;;;;;;;781272;179;821567;-65
2023/11/07 07:36:15;;;;;;;10.37;6.80;;;;;;;;;;776044;179;919587;-65
2023/11/07 07:38:36;;;;;;;17.17;8.50;;;;;;;;;;774265;179;920023;-65
2023/11/07 07:41:05;;;;;;;17.03;8.40;;;;;;;;;;782962;179;892518;-65
2023/11/07 07:43:28;;;;;;;13.23;9.97;;;;;;;;;;779222;179;917727;-65
2023/11/07 07:45:55;;;;;;;16.62;9.90;;;;;;;;;;778513;179;919482;-66
2023/11/07 07:48:20;;;;;;;22.67;14.30;;;;;;;;;;780990;179;918537;-65
2023/11/07 07:50:46;;;;;;;16.27;9.97;;;;;;;;;;773331;178;922858;-66
2023/11/07 07:53:14;;;;;;;17.90;11.97;;;;;;;;;;780307;177;918647;-66
2023/11/07 07:55:42;;;;;;;16.53;10.60;;;;;;;;;;772669;178;917274;-66
2023/11/07 07:58:03;;;;;;;9.77;6.07;;;;;;;;;;787108;176;897941;-65
2023/11/07 08:00:31;;;;;;;8.40;5.27;;;;;;;;;;777174;178;940516;-67
2023/11/07 08:02:57;;;;;;;10.10;5.47;;;;;;;;;;774229;179;916745;-65
2023/11/07 08:05:22;;;;;;;8.93;4.90;;;;;;;;;;782437;178;918641;-68
2023/11/07 08:07:48;;;;;;;7.87;4.10;;;;;;;;;;778308;178;917980;-65
2023/11/07 08:10:19;;;;;;;7.10;4.13;;;;;;;;;;777129;179;919911;-66
2023/11/07 08:12:42;;;;;;;7.60;4.28;;;;;;;;;;781442;175;924825;-67
2023/11/07 08:15:08;;;;;;;8.67;3.90;;;;;;;;;;774298;179;879238;-66
2023/11/07 08:17:35;;;;;;;4.83;3.30;;;;;;;;;;777557;179;819998;-66
2023/11/07 08:20:00;;;;;;;6.40;3.70;;;;;;;;;;772763;179;921865;-68
2023/11/07 08:22:26;;;;;;;5.10;3.03;;;;;;;;;;778934;179;919163;-66
2023/11/07 08:24:52;;;;;;;5.37;2.60;;;;;;;;;;776037;179;918352;-68
2023/11/07 08:27:19;;;;;;;4.23;2.43;;;;;;;;;;778841;179;918503;-64
2023/11/07 08:29:43;;;;;;;5.43;2.93;;;;;;;;;;780591;179;918369;-67
2023/11/07 08:32:12;;;;;;;6.68;3.28;;;;;;;;;;774997;178;919012;-69
2023/11/07 08:34:36;;;;;;;7.60;2.90;;;;;;;;;;776993;179;917103;-69
2023/11/07 08:37:01;;;;;;;4.30;2.50;;;;;;;;;;781025;179;919029;-66
2023/11/07 08:39:28;;;;;;;4.80;2.67;;;;;;;;;;774447;179;919548;-65
2023/11/07 08:41:54;;;;;;;4.70;2.80;;;;;;;;;;775576;179;918561;-69
2023/11/07 08:44:20;;;;;;;5.53;2.67;;;;;;;;;;771990;179;918541;-68
2023/11/07 08:46:45;;;;;;;3.90;2.30;;;;;;;;;;772209;178;816235;-68
2023/11/07 08:49:10;;;;;;;6.77;2.63;;;;;;;;;;771707;178;920152;-68
2023/11/07 08:51:36;;;;;;;5.23;2.37;;;;;;;;;;775933;179;920085;-69
2023/11/07 08:54:02;;;;;;;6.03;2.65;;;;;;;;;;782952;179;919625;-69
2023/11/07 08:56:28;;;;;;;4.03;1.73;;;;;;;;;;774236;179;943811;-67
2023/11/07 08:58:55;;;;;;;4.60;2.40;;;;;;;;;;777251;175;918726;-66
2023/11/07 09:01:21;;;;;;;5.53;2.33;;;;;;;;;;784099;179;912012;-70
2023/11/07 09:03:45;;;;;;;4.73;2.80;;;;;;;;;;778715;178;913838;-65
2023/11/07 09:06:11;;;;;;;6.23;3.07;;;;;;;;;;775396;178;917511;-66
2023/11/07 09:08:38;;;;;;;4.40;2.40;;;;;;;;;;783095;178;919331;-68
2023/11/07 09:11:04;;;;;;;6.80;2.87;;;;;;;;;;768749;180;919960;-66
2023/11/07 09:13:30;;;;;;;4.80;2.60;;;;;;;;;;774691;178;917236;-66
2023/11/07 09:15:58;;;;;;;5.50;2.40;;;;;;;;;;774354;178;918214;-69
2023/11/07 09:18:22;;;;;;;5.60;2.17;;;;;;;;;;781283;178;920113;-67
2023/11/07 09:20:48;;;;;;;4.90;2.75;;;;;;;;;;775622;178;879934;-66
2023/11/07 09:23:14;;;;;;;6.47;2.87;;;;;;;;;;773787;179;920371;-66
2023/11/07 09:25:39;;;;;;;4.30;2.43;;;;;;;;;;781551;179;919666;-67
2023/11/07 09:28:05;;;;;;;6.40;2.17;;;;;;;;;;779127;179;815493;-67
2023/11/07 09:30:31;;;;;;;3.83;2.27;;;;;;;;;;769541;179;1018585;-66
2023/11/07 09:32:58;;;;;;;6.40;2.40;;;;;;;;;;784358;175;867079;-67
2023/11/07 09:35:23;;;;;;;8.00;2.83;;;;;;;;;;779689;179;915748;-65
2023/11/07 09:37:49;;;;;;;5.87;2.87;;;;;;;;;;777264;177;915553;-69
2023/11/07 09:40:18;;;;;;;5.73;2.50;;;;;;;;;;769437;179;922169;-67
2023/11/07 09:42:44;;;;;;;6.07;2.87;;;;;;;;;;775804;179;918495;-69
2023/11/07 09:45:09;;;;;;;3.97;2.17;;;;;;;;;;773896;180;921326;-65
2023/11/07 09:47:35;;;;;;;3.80;1.97;;;;;;;;;;774504;179;825216;-66
2023/11/07 09:50:04;;;;;;;6.43;2.40;;;;;;;;;;780420;179;815159;-66
2023/11/07 09:52:27;;;;;;;5.37;2.87;;;;;;;;;;775313;178;907776;-66
2023/11/07 09:54:54;;;;;;;5.00;2.07;;;;;;;;;;778408;179;922169;-70
2023/11/07 09:57:22;;;;;;;4.43;2.20;;;;;;;;;;782366;179;919250;-69
2023/11/07 09:59:45;;;;;;;5.50;2.37;;;;;;;;;;780382;179;920673;-64
2023/11/07 10:02:10;;;;;;;3.67;2.00;;;;;;;;;;772893;176;920079;-70
2023/11/07 10:04:36;;;;;;;4.23;1.53;;;;;;;;;;771142;179;918939;-64
2023/11/07 10:07:03;;;;;;;3.30;1.93;;;;;;;;;;775638;177;919067;-67
2023/11/07 10:09:29;;;;;;;7.30;2.70;;;;;;;;;;777684;179;919261;-65
2023/11/07 10:11:56;;;;;;;3.33;1.87;;;;;;;;;;776023;179;919896;-69
2023/11/07 10:14:20;;;;;;;3.00;1.77;;;;;;;;;;778469;179;818889;-64
2023/11/07 10:16:45;;;;;;;3.87;1.90;;;;;;;;;;782573;178;919291;-69
2023/11/07 10:19:13;;;;;;;4.77;2.00;;;;;;;;;;775689;178;919316;-69
2023/11/07 10:21:38;;;;;;;2.73;1.50;;;;;;;;;;781107;179;821004;-69
2023/11/07 10:24:05;;;;;;;5.83;1.60;;;;;;;;;;776528;178;918953;-69
2023/11/07 10:26:31;;;;;;;2.93;1.47;;;;;;;;;;777363;178;917325;-69
2023/11/07 10:28:58;;;;;;;7.73;1.90;;;;;;;;;;771319;178;920615;-66
2023/11/07 10:31:24;;;;;;;3.93;1.90;;;;;;;;;;774715;178;893477;-69
2023/11/07 10:33:50;;;;;;;3.23;1.77;;;;;;;;;;778582;179;919434;-66
2023/11/07 10:36:16;;;;;;;2.87;1.70;;;;;;;;;;774725;179;921394;-69
2023/11/07 10:38:41;;;;;;;2.60;1.70;;;;;;;;;;783885;178;917917;-66
2023/11/07 10:41:08;;;;;;;6.30;2.00;;;;;;;;;;774545;179;924800;-65
2023/11/07 10:43:35;;;;;;;4.77;1.60;;;;;;;;;;772692;179;919447;-66
2023/11/07 10:46:03;;;;;;;3.10;1.40;;;;;;;;;;777982;179;813095;-66
2023/11/07 10:48:30;;;;;;;3.10;1.40;;;;;;;;;;774979;177;817335;-67
2023/11/07 10:50:54;;;;;;;2.93;1.60;;;;;;;;;;774337;179;918565;-67
2023/11/07 10:53:20;;;;;;;6.17;1.93;;;;;;;;;;777220;178;917823;-65
2023/11/07 10:55:46;;;;;;;5.53;2.10;;;;;;;;;;779985;179;888901;-69
2023/11/07 10:58:12;;;;;;;3.00;1.70;;;;;;;;;;775421;179;918356;-66
2023/11/07 11:00:38;;;;;;;2.70;2.07;;;;;;;;;;770948;179;920452;-67
2023/11/07 11:03:05;;;;;;;2.93;1.50;;;;;;;;;;776499;179;918893;-67
2023/11/07 11:05:29;;;;;;;4.87;2.33;;;;;;;;;;776272;179;922059;-66
2023/11/07 11:07:55;;;;;;;3.07;1.50;;;;;;;;;;776653;179;920019;-65
2023/11/07 11:10:21;;;;;;;2.80;1.30;;;;;;;;;;781950;179;917566;-65
2023/11/07 11:12:47;;;;;;;3.37;1.83;;;;;;;;;;768915;180;919580;-64
2023/11/07 11:15:13;;;;;;;2.90;1.70;;;;;;;;;;773151;179;816868;-68
2023/11/07 11:17:41;;;;;;;3.03;1.57;;;;;;;;;;758017;182;922731;-67
2023/11/07 11:20:11;;;;;;;3.83;1.83;;;;;;;;;;780207;178;916273;-68
2023/11/07 11:22:38;;;;;;;5.17;1.90;;;;;;;;;;771086;180;915194;-66
2023/11/07 11:25:04;;;;;;;3.93;1.63;;;;;;;;;;772103;177;920349;-68
2023/11/07 11:27:31;;;;;;;3.30;1.50;;;;;;;;;;784074;177;923024;-67
2023/11/07 11:29:57;;;;;;;3.20;1.77;;;;;;;;;;778280;178;920276;-67
2023/11/07 11:32:23;;;;;;;2.83;1.30;;;;;;;;;;775341;178;929283;-67
2023/11/07 11:34:49;;;;;;;4.67;1.80;;;;;;;;;;775386;179;920445;-66
2023/11/07 11:37:14;;;;;;;2.43;1.23;;;;;;;;;;784804;176;918121;-65
2023/11/07 11:39:42;;;;;;;4.53;1.67;;;;;;;;;;775552;178;920195;-68
2023/11/07 11:42:09;;;;;;;3.60;1.57;;;;;;;;;;778555;178;918400;-65
2023/11/07 11:44:34;;;;;;;4.10;1.63;;;;;;;;;;780763;179;918285;-67
2023/11/07 11:47:00;;;;;;;3.00;1.60;;;;;;;;;;779073;179;891743;-64
2023/11/07 11:49:27;;;;;;;5.07;2.00;;;;;;;;;;776221;179;919447;-66
2023/11/07 11:51:52;;;;;;;5.50;2.27;;;;;;;;;;777502;176;916365;-65
2023/11/07 11:54:34;;;;;;;5.43;2.13;;;;;;;;;;777603;179;813773;-67
2023/11/07 11:57:03;;;;;;;4.00;1.93;;;;;;;;;;773253;178;920820;-65
2023/11/07 11:59:28;;;;;;;4.80;2.57;;;;;;;;;;779111;178;934621;-65
2023/11/07 12:01:55;;;;;;;4.00;1.83;;;;;;;;;;774280;179;917362;-65
2023/11/07 12:04:26;;;;;;;3.92;1.60;;;;;;;;;;783647;179;917454;-64
2023/11/07 12:06:57;;;;;;;3.80;2.17;;;;;;;;;;779693;179;914256;-68
2023/11/07 12:09:28;;;;;;;3.60;2.03;;;;;;;;;;774750;179;920463;-67
2023/11/07 12:11:54;;;;;;;5.53;1.90;;;;;;;;;;779110;176;912796;-66
2023/11/07 12:14:20;;;;;;;3.77;1.93;;;;;;;;;;781568;179;807201;-68
2023/11/07 12:16:46;;;;;;;3.57;1.53;;;;;;;;;;767975;179;914976;-67
2023/11/07 12:19:12;;;;;;;3.12;1.52;;;;;;;;;;772730;179;808066;-68
2023/11/07 12:21:38;;;;;;;5.43;1.87;;;;;;;;;;772041;178;915565;-65
2023/11/07 12:24:04;;;;;;;3.37;1.63;;;;;;;;;;776883;180;914691;-68
2023/11/07 12:26:38;;;;;;;6.90;3.00;;;;;;;;;;781061;178;918858;-67
2023/11/07 12:29:06;;;;;;;3.83;1.80;;;;;;;;;;769297;179;919181;-67
2023/11/07 12:31:33;;;;;;;4.10;1.77;;;;;;;;;;778884;179;918373;-66
2023/11/07 12:34:01;;;;;;;4.10;1.97;;;;;;;;;;775668;180;919333;-68
2023/11/07 12:36:25;;;;;;;3.20;1.50;;;;;;;;;;782669;178;817061;-66
2023/11/07 12:38:51;;;;;;;4.33;1.73;;;;;;;;;;781785;178;818294;-68
2023/11/07 12:41:16;;;;;;;3.10;1.50;;;;;;;;;;782022;178;816517;-67
2023/11/07 12:43:43;;;;;;;2.47;1.20;;;;;;;;;;778905;178;817834;-67
2023/11/07 12:46:09;;;;;;;4.70;2.22;;;;;;;;;;780049;178;918322;-68
2023/11/07 12:48:37;;;;;;;2.60;1.27;;;;;;;;;;779360;175;810816;-68
2023/11/07 12:51:01;;;;;;;5.27;1.67;;;;;;;;;;775838;178;916527;-67
2023/11/07 12:53:27;;;;;;;5.70;1.33;;;;;;;;;;774832;178;950965;-68
2023/11/07 12:55:52;;;;;;;3.80;1.80;;;;;;;;;;783093;179;815701;-66
2023/11/07 12:58:27;;;;;;;3.70;1.80;;;;;;;;;;755455;179;1533682;-69
2023/11/07 13:00:56;;;;;;;3.07;1.60;;;;;;;;;;771678;179;919732;-67
2023/11/07 13:03:22;;;;;;;3.80;2.17;;;;;;;;;;776514;178;917994;-68
2023/11/07 13:05:54;;;;;;;2.70;1.40;;;;;;;;;;775419;179;918818;-68
2023/11/07 13:08:28;;;;;;;2.97;1.30;;;;;;;;;;769669;180;922308;-68
2023/11/07 13:10:53;;;;;;;3.50;1.40;;;;;;;;;;774848;178;917317;-66
2023/11/07 13:13:19;;;;;;;3.12;1.40;;;;;;;;;;767475;180;922490;-67
2023/11/07 13:15:45;;;;;;;2.50;1.40;;;;;;;;;;768442;180;818418;-66
2023/11/07 13:18:11;;;;;;;5.93;2.20;;;;;;;;;;777792;180;812823;-67
2023/11/07 13:20:37;;;;;;;9.07;1.90;;;;;;;;;;774179;178;915469;-67
2023/11/07 13:23:03;;;;;;;2.87;1.53;;;;;;;;;;776001;179;916964;-68
2023/11/07 13:25:28;;;;;;;3.20;1.43;;;;;;;;;;780533;179;925457;-68
2023/11/07 13:27:54;;;;;;;3.47;1.40;;;;;;;;;;773152;179;918592;-68
2023/11/07 13:30:21;;;;;;;3.20;1.67;;;;;;;;;;776013;179;918703;-68
2023/11/07 13:32:46;;;;;;;3.60;1.87;;;;;;;;;;776602;179;815489;-67
2023/11/07 13:35:13;;;;;;;3.60;1.67;;;;;;;;;;773579;179;916856;-68
2023/11/07 13:37:38;;;;;;;4.10;2.60;;;;;;;;;;775780;178;919742;-68
2023/11/07 13:40:06;;;;;;;3.60;2.10;;;;;;;;;;780248;179;918876;-67
2023/11/07 13:42:33;;;;;;;3.67;1.53;;;;;;;;;;778271;179;814284;-67
2023/11/07 13:44:57;;;;;;;4.30;2.13;;;;;;;;;;776870;179;919431;-69
2023/11/07 13:47:24;;;;;;;5.00;2.23;;;;;;;;;;776174;176;919192;-67
2023/11/07 13:49:49;;;;;;;4.03;2.47;;;;;;;;;;781438;178;919612;-67
2023/11/07 13:52:15;;;;;;;5.23;2.63;;;;;;;;;;775967;178;1075029;-67
2023/11/07 13:54:42;;;;;;;4.10;1.97;;;;;;;;;;778103;178;915100;-67
2023/11/07 13:57:07;;;;;;;4.50;2.13;;;;;;;;;;781957;178;915976;-68
2023/11/07 13:59:33;;;;;;;6.07;2.50;;;;;;;;;;777914;178;915732;-66
2023/11/07 14:01:59;;;;;;;6.70;2.20;;;;;;;;;;773909;179;923928;-67
2023/11/07 14:04:24;;;;;;;3.80;2.40;;;;;;;;;;778113;178;918850;-67
2023/11/07 14:06:50;;;;;;;4.50;2.43;;;;;;;;;;776102;179;920933;-66
2023/11/07 14:09:16;;;;;;;4.10;2.30;;;;;;;;;;772938;179;1024948;-68
2023/11/07 14:11:43;;;;;;;6.13;2.17;;;;;;;;;;774272;179;896177;-66
2023/11/07 14:14:08;;;;;;;7.03;2.63;;;;;;;;;;773317;180;921586;-67
2023/11/07 14:16:34;;;;;;;5.00;2.23;;;;;;;;;;775771;178;916673;-67